createdAt,value
2023-10-20T00:00:16.501Z,75.62
2023-10-20T00:02:43.893Z,74.93
2023-10-20T00:05:10.762Z,74.65
2023-10-20T00:07:38.090Z,74.44
2023-10-20T00:10:05.247Z,74.34
2023-10-20T00:12:32.295Z,74.67
2023-10-20T00:14:58.885Z,74.55
2023-10-20T00:17:26.007Z,74.60
2023-10-20T00:19:52.701Z,75.33
2023-10-20T00:22:19.332Z,75.04
2023-10-20T00:24:46.527Z,75.12
2023-10-20T00:27:16.668Z,74.87
2023-10-20T00:29:45.684Z,75.49
2023-10-20T00:32:16.325Z,75.25
2023-10-20T00:34:42.878Z,75.32
2023-10-20T00:37:09.434Z,75.24
2023-10-20T00:39:36.284Z,75.64
2023-10-20T00:42:03.506Z,77.47
2023-10-20T00:44:30.267Z,76.83
2023-10-20T00:46:57.766Z,76.23
2023-10-20T00:49:24.632Z,75.70
2023-10-20T00:51:51.766Z,75.57
2023-10-20T00:54:18.337Z,75.69
2023-10-20T00:56:45.279Z,77.21
2023-10-20T00:59:12.251Z,76.33
2023-10-20T01:01:39.283Z,76.00
2023-10-20T01:04:07.345Z,75.77
2023-10-20T01:06:34.443Z,75.53
2023-10-20T01:09:01.094Z,76.04
2023-10-20T01:11:27.759Z,75.62
2023-10-20T01:13:54.298Z,75.99
2023-10-20T01:16:20.955Z,75.81
2023-10-20T01:18:47.579Z,76.24
2023-10-20T01:21:14.225Z,76.19
2023-10-20T01:23:41.574Z,75.79
2023-10-20T01:26:09.197Z,75.58
2023-10-20T01:28:35.755Z,75.39
2023-10-20T01:31:02.371Z,74.80
2023-10-20T01:33:28.958Z,75.07
2023-10-20T01:35:55.567Z,75.01
2023-10-20T01:38:22.145Z,75.18
2023-10-20T01:40:48.671Z,75.28
2023-10-20T01:43:15.216Z,75.46
2023-10-20T01:45:41.881Z,75.23
2023-10-20T01:48:08.538Z,75.08
2023-10-20T01:50:36.103Z,75.06
2023-10-20T01:53:03.320Z,75.21
2023-10-20T01:55:29.883Z,75.06
2023-10-20T01:57:56.489Z,74.83
2023-10-20T02:00:23.662Z,74.26
2023-10-20T02:02:50.315Z,74.33
2023-10-20T02:05:17.019Z,74.93
2023-10-20T02:07:44.086Z,75.55
2023-10-20T02:10:11.409Z,75.41
2023-10-20T02:12:38.083Z,75.51
2023-10-20T02:15:05.828Z,76.08
2023-10-20T02:17:34.578Z,75.21
2023-10-20T02:20:02.659Z,75.16
2023-10-20T02:22:29.233Z,74.95
2023-10-20T02:24:55.777Z,74.71
2023-10-20T02:27:22.318Z,74.73
2023-10-20T02:29:48.797Z,75.30
2023-10-20T02:32:15.478Z,75.57
2023-10-20T02:34:42.276Z,75.22
2023-10-20T02:37:13.113Z,75.51
2023-10-20T02:39:40.159Z,75.40
2023-10-20T02:42:07.833Z,75.67
2023-10-20T02:44:34.605Z,75.01
2023-10-20T02:47:01.390Z,74.83
2023-10-20T02:49:27.968Z,74.99
2023-10-20T02:51:54.588Z,74.88
2023-10-20T02:54:21.307Z,74.63
2023-10-20T02:56:47.845Z,74.41
2023-10-20T02:59:14.442Z,74.97
2023-10-20T03:01:40.988Z,74.57
2023-10-20T03:04:08.085Z,74.35
2023-10-20T03:06:34.728Z,74.63
2023-10-20T03:09:01.411Z,74.48
2023-10-20T03:11:28.040Z,74.65
2023-10-20T03:13:54.613Z,75.02
2023-10-20T03:16:21.182Z,74.63
2023-10-20T03:18:47.788Z,74.96
2023-10-20T03:21:14.281Z,74.92
2023-10-20T03:23:44.862Z,74.57
2023-10-20T03:26:13.017Z,74.26
2023-10-20T03:28:40.661Z,74.49
2023-10-20T03:31:08.296Z,75.04
2023-10-20T03:33:34.862Z,75.14
2023-10-20T03:36:02.831Z,75.05
2023-10-20T03:38:29.699Z,75.31
2023-10-20T03:41:07.277Z,76.17
2023-10-20T03:43:35.584Z,76.60
2023-10-20T03:46:02.483Z,77.19
2023-10-20T03:48:30.674Z,76.81
2023-10-20T03:50:57.310Z,76.93
2023-10-20T03:53:24.467Z,76.69
2023-10-20T03:56:06.119Z,76.49
2023-10-20T03:58:37.201Z,76.44
2023-10-20T04:01:04.666Z,76.20
2023-10-20T04:03:34.337Z,75.71
2023-10-20T04:06:02.209Z,75.24
2023-10-20T04:08:29.059Z,75.82
2023-10-20T04:10:59.718Z,75.21
2023-10-20T04:13:26.735Z,75.13
2023-10-20T04:15:56.295Z,75.24
2023-10-20T04:18:25.756Z,75.27
2023-10-20T04:20:58.763Z,75.57
2023-10-20T04:23:25.783Z,75.54
2023-10-20T04:25:58.348Z,75.38
2023-10-20T04:28:41.869Z,74.98
2023-10-20T04:31:27.126Z,75.11
2023-10-20T04:34:12.086Z,75.65
2023-10-20T04:36:56.950Z,75.43
2023-10-20T04:39:41.954Z,75.93
2023-10-20T04:42:20.792Z,75.82
2023-10-20T04:44:50.092Z,75.58
2023-10-20T04:47:26.259Z,75.63
2023-10-20T04:50:02.891Z,75.14
2023-10-20T04:52:48.353Z,75.22
2023-10-20T04:55:30.077Z,75.17
2023-10-20T04:58:08.783Z,75.54
2023-10-20T05:00:38.580Z,75.63
2023-10-20T05:03:05.327Z,75.56
2023-10-20T05:05:50.352Z,75.56
2023-10-20T05:08:19.225Z,76.29
2023-10-20T05:10:46.416Z,76.33
2023-10-20T05:13:13.306Z,75.72
2023-10-20T05:15:40.273Z,75.35
2023-10-20T05:18:10.670Z,75.05
2023-10-20T05:20:38.431Z,75.36
2023-10-20T05:23:06.871Z,75.32
2023-10-20T05:25:34.027Z,75.99
2023-10-20T05:28:03.212Z,75.78
2023-10-20T05:30:29.892Z,75.69
2023-10-20T05:32:56.567Z,76.39
2023-10-20T05:35:23.141Z,76.87
2023-10-20T05:37:50.092Z,76.21
2023-10-20T05:40:17.120Z,76.00
2023-10-20T05:42:43.693Z,76.14
2023-10-20T05:45:10.979Z,76.01
2023-10-20T05:47:39.482Z,76.05
2023-10-20T05:50:07.412Z,75.71
2023-10-20T05:52:36.719Z,75.49
2023-10-20T05:55:04.593Z,76.05
2023-10-20T05:57:31.664Z,75.66
2023-10-20T06:00:01.117Z,75.64
2023-10-20T06:02:29.220Z,75.91
2023-10-20T06:04:56.115Z,76.61
2023-10-20T06:07:22.866Z,76.52
2023-10-20T06:09:50.803Z,76.79
2023-10-20T06:12:18.037Z,76.97
2023-10-20T06:14:44.816Z,77.52
2023-10-20T06:17:11.796Z,77.54
2023-10-20T06:19:38.441Z,77.35
2023-10-20T06:22:06.646Z,77.18
2023-10-20T06:24:34.519Z,77.34
2023-10-20T06:27:04.191Z,77.14
2023-10-20T06:29:31.335Z,77.26
2023-10-20T06:32:12.838Z,77.01
2023-10-20T06:34:42.999Z,76.56
2023-10-20T06:37:09.838Z,75.92
2023-10-20T06:39:38.688Z,75.98
2023-10-20T06:42:10.684Z,75.99
2023-10-20T06:44:37.586Z,76.31
2023-10-20T06:47:04.122Z,75.51
2023-10-20T06:49:30.835Z,75.53
2023-10-20T06:51:57.352Z,75.57
2023-10-20T06:54:23.844Z,74.98
2023-10-20T06:56:50.394Z,74.93
2023-10-20T06:59:16.999Z,74.91
2023-10-20T07:01:45.437Z,75.03
2023-10-20T07:04:12.192Z,74.57
2023-10-20T07:06:39.029Z,74.81
2023-10-20T07:09:23.653Z,74.82
2023-10-20T07:11:50.937Z,74.93
2023-10-20T07:14:17.516Z,75.34
2023-10-20T07:16:44.177Z,75.24
2023-10-20T07:19:11.780Z,74.78
2023-10-20T07:21:38.630Z,74.45
2023-10-20T07:24:05.472Z,75.21
2023-10-20T07:26:32.263Z,74.96
2023-10-20T07:28:58.840Z,74.88
2023-10-20T07:31:27.611Z,74.74
2023-10-20T07:33:54.800Z,74.87
2023-10-20T07:36:21.423Z,75.83
2023-10-20T07:38:48.159Z,75.31
2023-10-20T07:41:17.456Z,75.40
2023-10-20T07:43:44.108Z,75.85
2023-10-20T07:46:18.125Z,75.25
2023-10-20T07:48:44.858Z,75.97
2023-10-20T07:51:12.660Z,75.93
2023-10-20T07:53:39.462Z,75.34
2023-10-20T07:56:09.139Z,75.30
2023-10-20T07:58:35.723Z,75.01
2023-10-20T08:01:02.406Z,74.59
2023-10-20T08:03:29.381Z,75.03
2023-10-20T08:05:56.886Z,74.45
2023-10-20T08:08:23.988Z,73.58
2023-10-20T08:10:51.018Z,73.83
2023-10-20T08:13:19.445Z,73.89
2023-10-20T08:15:46.238Z,74.02
2023-10-20T08:18:13.659Z,74.53
2023-10-20T08:20:40.799Z,74.86
2023-10-20T08:23:07.360Z,75.40
2023-10-20T08:25:38.129Z,76.33
2023-10-20T08:28:05.947Z,75.59
2023-10-20T08:30:32.566Z,76.20
2023-10-20T08:33:00.550Z,75.75
2023-10-20T08:35:27.447Z,77.65
2023-10-20T08:37:54.083Z,76.42
2023-10-20T08:43:03.738Z,76.06
2023-10-20T08:45:33.860Z,75.58
2023-10-20T08:48:03.143Z,75.57
2023-10-20T08:50:32.971Z,75.09
2023-10-20T08:53:02.421Z,74.77
2023-10-20T08:55:28.968Z,74.38
2023-10-20T08:57:55.650Z,73.45
2023-10-20T09:00:22.254Z,73.46
2023-10-20T09:02:49.617Z,73.22
2023-10-20T09:05:23.388Z,73.72
2023-10-20T09:07:57.301Z,73.56
2023-10-20T09:10:24.476Z,73.68
2023-10-20T09:12:51.371Z,73.87
2023-10-20T09:15:18.236Z,73.89
2023-10-20T09:17:46.106Z,74.13
2023-10-20T09:20:13.390Z,73.75
2023-10-20T09:22:40.057Z,74.27
2023-10-20T09:25:13.090Z,74.52
2023-10-20T09:27:39.712Z,74.16
2023-10-20T09:30:12.270Z,73.79
2023-10-20T09:32:39.833Z,74.15
2023-10-20T09:35:07.276Z,74.12
2023-10-20T09:37:37.338Z,73.75
2023-10-20T09:40:13.842Z,73.75
2023-10-20T09:43:07.874Z,73.72
2023-10-20T09:45:44.916Z,72.75
2023-10-20T09:48:19.941Z,73.13
2023-10-20T09:50:52.037Z,72.66
2023-10-20T09:53:19.444Z,72.68
2023-10-20T09:55:48.637Z,72.24
2023-10-20T09:58:25.880Z,72.08
2023-10-20T10:00:52.661Z,71.81
2023-10-20T10:03:29.781Z,70.37
2023-10-20T10:05:57.067Z,70.32
2023-10-20T10:08:26.051Z,70.98
2023-10-20T10:10:52.659Z,70.60
2023-10-20T10:13:33.003Z,70.53
2023-10-20T10:16:11.645Z,71.27
2023-10-20T10:18:46.285Z,70.70
2023-10-20T10:21:28.252Z,70.34
2023-10-20T10:24:14.745Z,69.77
2023-10-20T10:26:53.097Z,69.20
2023-10-20T10:29:54.953Z,70.43
2023-10-20T10:32:23.632Z,70.41
2023-10-20T10:34:55.696Z,70.17
2023-10-20T10:37:38.735Z,69.79
2023-10-20T10:40:15.407Z,70.58
2023-10-20T10:42:43.878Z,69.23
2023-10-20T10:45:22.095Z,69.46
2023-10-20T10:47:49.938Z,68.45
2023-10-20T10:50:18.240Z,69.42
2023-10-20T10:52:44.916Z,69.00
2023-10-20T10:55:11.468Z,69.33
2023-10-20T10:57:39.681Z,66.74
2023-10-20T11:00:10.466Z,67.39
2023-10-20T11:02:37.222Z,68.60
2023-10-20T11:05:05.006Z,68.11
2023-10-20T11:07:32.236Z,67.49
2023-10-20T11:09:58.759Z,67.36
2023-10-20T11:12:25.500Z,67.70
2023-10-20T11:14:57.394Z,68.21
2023-10-20T11:17:25.713Z,67.87
2023-10-20T11:19:52.415Z,68.02
2023-10-20T11:22:18.980Z,67.99
2023-10-20T11:24:53.616Z,68.25
2023-10-20T11:27:20.404Z,65.77
2023-10-20T11:29:58.554Z,66.92
2023-10-20T11:32:28.859Z,67.31
2023-10-20T11:34:55.550Z,64.61
2023-10-20T11:37:22.117Z,64.75
2023-10-20T11:39:48.762Z,65.94
2023-10-20T11:42:15.526Z,67.30
2023-10-20T11:44:42.174Z,69.64
2023-10-20T11:47:08.853Z,69.42
2023-10-20T11:49:35.350Z,69.67
2023-10-20T11:52:03.732Z,68.08
2023-10-20T11:54:30.357Z,68.65
2023-10-20T11:56:56.918Z,68.02
2023-10-20T11:59:23.496Z,66.95
2023-10-20T12:01:50.244Z,65.53
2023-10-20T12:04:17.462Z,62.44
2023-10-20T12:06:45.217Z,63.56
2023-10-20T12:09:17.872Z,64.77
2023-10-20T12:11:46.576Z,64.67
2023-10-20T12:14:15.254Z,64.59
2023-10-20T12:16:43.081Z,63.59
2023-10-20T12:19:09.778Z,63.64
2023-10-20T12:21:36.443Z,63.95
2023-10-20T12:24:03.255Z,64.02
2023-10-20T12:26:29.843Z,64.46
2023-10-20T12:28:58.129Z,64.58
2023-10-20T12:31:27.393Z,62.94
2023-10-20T12:33:54.190Z,62.92
2023-10-20T12:36:22.367Z,62.76
2023-10-20T12:38:49.262Z,61.74
2023-10-20T12:41:16.082Z,62.27
2023-10-20T12:43:43.284Z,61.33
2023-10-20T12:46:13.442Z,60.83
2023-10-20T12:48:41.324Z,59.82
2023-10-20T12:51:12.070Z,61.64
2023-10-20T12:53:38.913Z,60.42
2023-10-20T12:56:06.623Z,61.77
2023-10-20T12:58:34.096Z,61.86
2023-10-20T13:01:01.032Z,63.21
2023-10-20T13:03:28.042Z,64.23
2023-10-20T13:05:55.716Z,65.78
2023-10-20T13:08:23.431Z,65.57
2023-10-20T13:10:50.068Z,65.27
2023-10-20T13:13:18.046Z,66.04
2023-10-20T13:15:45.502Z,65.89
2023-10-20T13:18:13.743Z,67.41
2023-10-20T13:20:41.700Z,68.43
2023-10-20T13:23:08.319Z,67.65
2023-10-20T13:25:35.280Z,67.29
2023-10-20T13:28:01.941Z,66.18
2023-10-20T13:30:28.542Z,65.13
2023-10-20T13:32:55.119Z,65.47
2023-10-20T13:35:23.114Z,65.23
2023-10-20T13:37:50.856Z,65.38
2023-10-20T13:40:17.488Z,66.17
2023-10-20T13:42:45.377Z,66.49
2023-10-20T13:45:13.687Z,67.57
2023-10-20T13:47:40.585Z,67.18
2023-10-20T13:50:10.397Z,67.13
2023-10-20T13:52:39.632Z,67.81
2023-10-20T13:55:20.839Z,68.28
2023-10-20T13:57:48.780Z,68.70
2023-10-20T14:00:18.264Z,68.92
2023-10-20T14:02:45.021Z,69.08
2023-10-20T14:05:13.618Z,70.15
2023-10-20T14:07:40.117Z,70.72
2023-10-20T14:10:07.392Z,70.11
2023-10-20T14:12:33.910Z,69.68
2023-10-20T14:15:00.835Z,70.06
2023-10-20T14:17:27.511Z,71.25
2023-10-20T14:19:54.732Z,70.62
2023-10-20T14:22:21.286Z,69.79
2023-10-20T14:24:47.901Z,70.08
2023-10-20T14:27:14.366Z,69.95
2023-10-20T14:29:41.639Z,69.80
2023-10-20T14:32:08.477Z,69.40
2023-10-20T14:34:36.321Z,69.40
2023-10-20T14:37:04.508Z,69.83
2023-10-20T14:39:31.132Z,71.41
2023-10-20T14:41:57.644Z,70.69
2023-10-20T14:44:24.219Z,71.54
2023-10-20T14:46:50.742Z,71.21
2023-10-20T14:49:17.237Z,71.35
2023-10-20T14:51:43.793Z,71.03
2023-10-20T14:54:14.872Z,70.42
2023-10-20T14:56:41.653Z,71.35
2023-10-20T14:59:08.365Z,71.16
2023-10-20T15:01:35.106Z,71.70
2023-10-20T15:04:14.019Z,71.82
2023-10-20T15:06:48.323Z,72.25
2023-10-20T15:09:15.359Z,72.21
2023-10-20T15:11:41.918Z,72.28
2023-10-20T15:14:09.367Z,71.22
2023-10-20T15:16:36.015Z,72.17
2023-10-20T15:19:02.538Z,71.97
2023-10-20T15:21:29.566Z,71.61
2023-10-20T15:23:56.235Z,72.49
2023-10-20T15:26:23.080Z,72.14
2023-10-20T15:28:49.657Z,73.27
2023-10-20T15:31:16.206Z,72.81
2023-10-20T15:33:43.138Z,73.40
2023-10-20T15:36:10.923Z,72.35
2023-10-20T15:38:38.703Z,71.60
2023-10-20T15:41:05.528Z,70.32
2023-10-20T15:43:32.854Z,69.60
2023-10-20T15:46:00.515Z,69.16
2023-10-20T15:48:27.242Z,69.24
2023-10-20T15:50:53.974Z,69.15
2023-10-20T15:53:20.565Z,70.36
2023-10-20T15:55:47.506Z,69.65
2023-10-20T15:58:16.451Z,68.69
2023-10-20T16:00:47.777Z,67.66
2023-10-20T16:03:18.872Z,66.57
2023-10-20T16:05:46.921Z,67.64
2023-10-20T16:08:13.483Z,67.68
2023-10-20T16:10:39.956Z,68.60
2023-10-20T16:13:06.404Z,68.85
2023-10-20T16:15:33.626Z,69.27
2023-10-20T16:18:00.266Z,69.11
2023-10-20T16:20:27.315Z,69.92
2023-10-20T16:22:53.873Z,70.26
2023-10-20T16:25:20.415Z,70.18
2023-10-20T16:27:46.940Z,70.10
2023-10-20T16:30:13.565Z,71.51
2023-10-20T16:32:41.885Z,71.75
2023-10-20T16:35:09.363Z,71.47
2023-10-20T16:37:36.213Z,71.46
2023-10-20T16:40:03.063Z,71.26
2023-10-20T16:42:29.601Z,70.83
2023-10-20T16:44:56.634Z,70.41
2023-10-20T16:47:23.211Z,70.10
2023-10-20T16:49:52.128Z,69.54
2023-10-20T16:52:18.840Z,68.99
2023-10-20T16:54:52.042Z,70.22
2023-10-20T16:57:19.359Z,70.27
2023-10-20T16:59:45.973Z,71.31
2023-10-20T17:02:12.591Z,73.09
2023-10-20T17:04:39.116Z,71.99
2023-10-20T17:07:06.001Z,72.57
2023-10-20T17:09:34.419Z,73.38
2023-10-20T17:12:01.346Z,74.78
2023-10-20T17:14:28.829Z,74.34
2023-10-20T17:16:55.996Z,73.60
2023-10-20T17:19:22.678Z,73.44
2023-10-20T17:21:49.191Z,73.70
2023-10-20T17:24:15.864Z,73.67
2023-10-20T17:26:42.400Z,72.84
2023-10-20T17:29:08.952Z,73.07
2023-10-20T17:31:35.681Z,73.85
2023-10-20T17:34:02.538Z,73.48
2023-10-20T17:36:29.113Z,73.87
2023-10-20T17:38:56.014Z,74.80
2023-10-20T17:41:22.615Z,75.09
2023-10-20T17:43:49.127Z,75.12
2023-10-20T17:46:18.126Z,75.89
2023-10-20T17:48:45.229Z,76.38
2023-10-20T17:51:12.088Z,77.10
2023-10-20T17:53:38.709Z,76.15
2023-10-20T17:56:06.148Z,76.00
2023-10-20T17:58:33.275Z,75.24
2023-10-20T18:01:10.800Z,73.87
2023-10-20T18:03:43.628Z,73.63
2023-10-20T18:06:15.847Z,72.73
2023-10-20T18:08:47.385Z,70.56
2023-10-20T18:11:18.081Z,71.48
2023-10-20T18:13:46.199Z,72.76
2023-10-20T18:16:18.108Z,72.07
2023-10-20T18:18:49.454Z,71.02
2023-10-20T18:21:19.288Z,71.95
2023-10-20T18:23:48.026Z,72.83
2023-10-20T18:26:15.104Z,72.04
2023-10-20T18:28:42.178Z,70.68
2023-10-20T18:31:14.977Z,70.23
2023-10-20T18:33:42.236Z,71.00
2023-10-20T18:36:09.428Z,71.66
2023-10-20T18:38:36.027Z,71.05
2023-10-20T18:41:04.167Z,70.84
2023-10-20T18:43:30.935Z,70.51
2023-10-20T18:46:00.951Z,71.40
2023-10-20T18:48:28.176Z,70.59
2023-10-20T18:51:07.584Z,70.08
2023-10-20T18:53:35.924Z,69.69
2023-10-20T18:56:03.024Z,69.13
2023-10-20T18:58:30.246Z,68.87
2023-10-20T19:00:57.977Z,68.44
2023-10-20T19:03:24.857Z,68.87
2023-10-20T19:05:51.913Z,68.37
2023-10-20T19:08:19.302Z,69.31
2023-10-20T19:10:46.294Z,69.38
2023-10-20T19:13:13.170Z,69.44
2023-10-20T19:15:39.789Z,68.50
2023-10-20T19:18:06.511Z,68.14
2023-10-20T19:20:33.066Z,67.61
2023-10-20T19:23:01.037Z,68.50
2023-10-20T19:25:27.680Z,67.67
2023-10-20T19:27:59.494Z,67.79
2023-10-20T19:30:25.988Z,67.12
2023-10-20T19:32:52.699Z,67.14
2023-10-20T19:35:19.305Z,66.93
2023-10-20T19:37:45.783Z,65.88
2023-10-20T19:40:15.085Z,66.20
2023-10-20T19:42:44.038Z,65.04
2023-10-20T19:45:11.651Z,64.80
2023-10-20T19:47:38.542Z,64.60
2023-10-20T19:50:05.808Z,64.65
2023-10-20T19:52:32.379Z,64.72
2023-10-20T19:55:01.855Z,64.34
2023-10-20T19:57:28.421Z,63.63
2023-10-20T19:59:55.095Z,63.45
2023-10-20T20:02:21.676Z,63.02
2023-10-20T20:04:48.361Z,60.44
2023-10-20T20:07:14.874Z,59.45
2023-10-20T20:09:41.430Z,57.10
2023-10-20T20:12:08.070Z,55.54
2023-10-20T20:14:34.692Z,55.10
2023-10-20T20:17:03.045Z,53.01
2023-10-20T20:19:29.787Z,51.79
2023-10-20T20:21:56.280Z,51.09
2023-10-20T20:24:22.790Z,50.49
2023-10-20T20:26:49.390Z,50.02
2023-10-20T20:29:15.957Z,49.31
2023-10-20T20:31:42.563Z,49.26
2023-10-20T20:34:10.617Z,48.65
2023-10-20T20:36:37.291Z,48.88
2023-10-20T20:39:05.731Z,48.55
2023-10-20T20:41:34.680Z,48.15
2023-10-20T20:44:01.174Z,48.02
2023-10-20T20:46:27.850Z,48.53
2023-10-20T20:48:54.551Z,48.09
2023-10-20T20:51:21.159Z,47.76
2023-10-20T20:53:47.986Z,47.64
2023-10-20T20:56:17.027Z,48.25
2023-10-20T20:58:43.516Z,47.78
2023-10-20T21:01:11.396Z,48.06
2023-10-20T21:03:44.142Z,47.66
2023-10-20T21:06:11.403Z,48.18
2023-10-20T21:08:38.036Z,47.67
2023-10-20T21:11:14.233Z,47.46
2023-10-20T21:13:43.137Z,47.15
2023-10-20T21:16:11.234Z,47.36
2023-10-20T21:18:38.714Z,47.88
2023-10-20T21:21:11.794Z,47.67
2023-10-20T21:23:38.472Z,47.09
2023-10-20T21:26:05.074Z,46.58
2023-10-20T21:28:31.644Z,47.10
2023-10-20T21:31:06.278Z,46.81
2023-10-20T21:33:33.899Z,46.94
2023-10-20T21:36:01.227Z,46.54
2023-10-20T21:38:27.752Z,47.13
2023-10-20T21:41:01.595Z,47.06
2023-10-20T21:43:28.661Z,47.06
2023-10-20T21:45:59.537Z,47.23
2023-10-20T21:48:26.880Z,47.59
2023-10-20T21:51:01.431Z,46.85
2023-10-20T21:53:30.169Z,47.41
2023-10-20T21:56:06.006Z,47.33
2023-10-20T21:58:38.141Z,47.24
2023-10-20T22:01:10.143Z,47.77
2023-10-20T22:03:39.197Z,47.11
2023-10-20T22:06:09.525Z,47.77
2023-10-20T22:08:36.331Z,48.09
2023-10-20T22:11:02.873Z,48.02
2023-10-20T22:13:29.441Z,47.83
2023-10-20T22:15:56.826Z,48.54
2023-10-20T22:18:23.587Z,48.33
2023-10-20T22:20:50.266Z,48.58
2023-10-20T22:23:19.275Z,48.72
2023-10-20T22:25:45.898Z,49.04
2023-10-20T22:28:12.392Z,49.20
2023-10-20T22:30:38.923Z,49.67
2023-10-20T22:33:05.623Z,52.15
2023-10-20T22:35:36.535Z,53.28
2023-10-20T22:38:03.233Z,54.11
2023-10-20T22:40:29.817Z,54.92
2023-10-20T22:42:56.805Z,55.61
2023-10-20T22:45:23.294Z,56.37
2023-10-20T22:47:52.991Z,57.19
2023-10-20T22:50:20.405Z,56.93
2023-10-20T22:52:50.177Z,56.30
2023-10-20T22:55:16.736Z,56.87
2023-10-20T22:57:43.431Z,57.08
2023-10-20T23:00:12.811Z,57.82
2023-10-20T23:02:41.209Z,58.20
2023-10-20T23:05:08.990Z,59.25
2023-10-20T23:07:35.882Z,60.63
2023-10-20T23:10:04.553Z,61.26
2023-10-20T23:12:34.674Z,61.42
2023-10-20T23:15:01.867Z,62.09
2023-10-20T23:17:28.631Z,62.54
2023-10-20T23:19:55.806Z,62.71
2023-10-20T23:22:22.393Z,62.66
2023-10-20T23:24:48.948Z,63.25
2023-10-20T23:27:15.701Z,63.41
2023-10-20T23:29:43.157Z,63.81
2023-10-20T23:32:09.953Z,63.99
2023-10-20T23:34:36.736Z,64.84
2023-10-20T23:37:06.223Z,64.88
2023-10-20T23:39:34.416Z,65.39
2023-10-20T23:42:05.265Z,65.57
2023-10-20T23:44:32.381Z,65.55
2023-10-20T23:46:58.893Z,66.21
2023-10-20T23:49:25.597Z,65.68
2023-10-20T23:51:52.912Z,65.92
2023-10-20T23:54:19.620Z,66.01
2023-10-20T23:56:46.259Z,65.98
2023-10-20T23:59:12.772Z,65.62
